• Join FlightAware (Why Join?)
  • Login
  • US Flag 
03:25AM EDT


 

Airport Tracker/Info


-or-


 

Live Flight TrackerFlight Track Log ✈ EMD23 ✈ 04-May-2012 ✈ KAMA - KLBL

Flight Track Log - Related Links

Times and Time Zones

All times are in EDT time to prevent confusion due to time zone crossing. See the EMD23 flight status page for this flight to view local times or setup timezone preferences in your user account.

Time Position Orientation Groundspeed Altitude Reporting Facility
EDT Latitude Longitude Course Direction KTS MPH feet Rate Location/Type
06:54PM 35.2811 -101.6811 345° North  Level FlightAware Approximate
06:55PM 35.3246 -101.6473 330° Northwest  Level FlightAware Approximate
06:56PM 35.3745 -101.6294 310° West  Level FlightAware Approximate
06:57PM 35.4239 -101.6099 282° West  Level FlightAware Approximate
06:58PM 35.4715 -101.5873 258° West  Level FlightAware Approximate
06:59PM 35.4461 -101.7339 23° Northeast 185 213 11,400  Level Albuquerque Center
07:00PM 35.4908 -101.7106 21° North 180 207 12,500 1,020 Climbing Albuquerque Center
07:01PM 35.5358 -101.6894 22° Northeast 175 201 13,500 900 Climbing Albuquerque Center
07:02PM 35.5828 -101.6656 21° North 175 201 14,300 600 Climbing Albuquerque Center
07:03PM 35.6336 -101.6414 16° North 181 208 14,800 360 Climbing Albuquerque Center
07:04PM 35.6953 -101.6192 20° North 200 230 15,100 120 Climbing Albuquerque Center
07:05PM 35.7567 -101.5917 22° Northeast 218 251 15,100 -60 Level Albuquerque Center
07:06PM 35.8178 -101.5617 20° North 229 264 15,000  Descending Albuquerque Center
07:07PM 35.8789 -101.5342 20° North 229 264 15,100  Climbing Albuquerque Center
07:08PM 35.9403 -101.5067 21° North 229 264 15,000  Descending Albuquerque Center
07:09PM 36.0033 -101.4761 22° Northeast 229 264 15,100  Climbing Albuquerque Center
07:10PM 36.0625 -101.4461 23° Northeast 229 264 15,100  Level Albuquerque Center
07:11PM 36.1256 -101.4131 20° North 229 264 15,100 -60 Level Albuquerque Center
07:14PM 36.2686 -101.3489 21° North 240 276 15,000 -60 Descending Kansas City Center
07:15PM 36.3267 -101.3206 22° Northeast 235 270 15,000  Level Kansas City Center
07:16PM 36.3911 -101.2875 24° Northeast 235 270 15,000 -60 Level Kansas City Center
07:17PM 36.4603 -101.2494 22° Northeast 240 276 14,900 -480 Descending Kansas City Center
07:18PM 36.5247 -101.2164 20° North 240 276 14,100 -1,140 Descending Kansas City Center
07:19PM 36.5931 -101.1861 15° North 240 276 12,700 -1,440 Descending Kansas City Center
07:20PM 36.6547 -101.1656 18° North 250 288 11,300 -1,620 Descending Kansas City Center
07:21PM 36.7294 -101.1356 17° North 251 289 9,500 -1,680 Descending Kansas City Center
07:22PM 36.7956 -101.1103 21° North 246 283 8,000 -1,500 Descending Kansas City Center
07:23PM 36.8556 -101.0817 17° North 241 277 6,600 -1,440 Descending Kansas City Center
07:24PM 36.9111 -101.0603 18° North 231 266 5,200 -1,140 Descending Kansas City Center
07:25PM 36.9731 -101.0344 27° Northeast 226 260 4,400 -480 Descending Kansas City Center
07:26PM 37.0228 -101.0022 68° East 205 236 4,300  Descending Kansas City Center
07:27PM 37.0403 -100.9492 58° Northeast 175 201 4,400  Climbing Kansas City Center
07:28PM 37.0636 -100.9017 58° Northeast 169 194 4,300 -120 Descending Kansas City Center